createdAt,value
2019-02-02T00:00:21.462Z,0.00
2019-02-02T00:02:15.149Z,0.00
2019-02-02T00:03:15.110Z,0.00
2019-02-02T00:05:08.848Z,0.00
2019-02-02T00:06:08.784Z,0.00
2019-02-02T00:08:03.179Z,0.00
2019-02-02T00:09:03.135Z,0.00
2019-02-02T00:10:56.842Z,0.00
2019-02-02T00:11:56.795Z,0.00
2019-02-02T00:13:50.641Z,0.00
2019-02-02T00:14:50.567Z,0.00
2019-02-02T00:16:44.864Z,0.00
2019-02-02T00:17:44.830Z,0.00
2019-02-02T00:19:38.543Z,0.00
2019-02-02T00:20:38.472Z,0.00
2019-02-02T00:22:32.164Z,0.00
2019-02-02T00:23:32.099Z,0.00
2019-02-02T00:25:25.823Z,0.00
2019-02-02T00:26:25.755Z,0.00
2019-02-02T00:28:19.337Z,0.00
2019-02-02T00:29:19.262Z,0.00
2019-02-02T00:31:12.999Z,0.00
2019-02-02T00:32:12.961Z,0.00
2019-02-02T00:34:06.711Z,0.00
2019-02-02T00:35:06.632Z,0.00
2019-02-02T00:37:00.213Z,0.00
2019-02-02T00:38:00.196Z,0.00
2019-02-02T00:39:53.946Z,0.00
2019-02-02T00:40:53.868Z,0.00
2019-02-02T00:42:47.594Z,0.00
2019-02-02T00:43:47.540Z,0.00
2019-02-02T00:45:41.288Z,0.00
2019-02-02T00:46:41.243Z,0.00
2019-02-02T00:48:34.958Z,0.00
2019-02-02T00:49:34.889Z,0.00
2019-02-02T00:51:28.397Z,0.00
2019-02-02T00:52:28.383Z,0.00
2019-02-02T00:54:23.154Z,0.00
2019-02-02T00:55:23.082Z,0.00
2019-02-02T00:57:16.756Z,0.00
2019-02-02T00:58:16.719Z,0.00
2019-02-02T00:59:16.790Z,0.00
2019-02-02T01:00:16.691Z,0.00
2019-02-02T01:01:16.678Z,0.00
2019-02-02T01:02:16.668Z,0.00
2019-02-02T01:03:16.650Z,0.00
2019-02-02T01:04:16.636Z,0.00
2019-02-02T01:05:16.651Z,0.00
2019-02-02T01:06:16.613Z,0.00
2019-02-02T01:07:16.601Z,0.00
2019-02-02T01:08:16.591Z,0.00
2019-02-02T01:09:16.577Z,0.00
2019-02-02T01:10:16.560Z,0.00
2019-02-02T01:11:16.550Z,0.00
2019-02-02T01:12:16.538Z,0.00
2019-02-02T01:13:16.522Z,0.00
2019-02-02T01:14:16.508Z,0.00
2019-02-02T01:15:16.492Z,0.00
2019-02-02T01:16:16.479Z,0.00
2019-02-02T01:17:16.468Z,0.00
2019-02-02T01:18:16.462Z,0.00
2019-02-02T01:19:16.444Z,0.00
2019-02-02T01:20:16.434Z,0.00
2019-02-02T01:21:16.419Z,0.00
2019-02-02T01:22:16.540Z,0.00
2019-02-02T01:23:16.392Z,0.00
2019-02-02T01:24:16.496Z,0.00
2019-02-02T01:25:16.368Z,0.00
2019-02-02T01:26:16.358Z,0.00
2019-02-02T01:27:16.349Z,0.00
2019-02-02T01:28:16.325Z,0.00
2019-02-02T01:29:16.313Z,0.00
2019-02-02T01:30:16.303Z,0.00
2019-02-02T01:31:16.294Z,0.00
2019-02-02T01:32:16.275Z,0.00
2019-02-02T01:33:16.263Z,0.00
2019-02-02T01:34:16.254Z,0.00
2019-02-02T01:35:16.237Z,0.00
2019-02-02T01:36:16.220Z,0.00
2019-02-02T01:37:16.220Z,0.00
2019-02-02T01:38:16.196Z,0.00
2019-02-02T01:39:16.195Z,0.00
2019-02-02T01:40:16.175Z,0.00
2019-02-02T01:41:16.162Z,0.00
2019-02-02T01:42:16.149Z,0.00
2019-02-02T01:43:16.136Z,0.00
2019-02-02T01:44:16.120Z,0.00
2019-02-02T01:45:16.105Z,0.00
2019-02-02T01:46:16.095Z,0.00
2019-02-02T01:47:16.083Z,0.00
2019-02-02T01:48:16.073Z,0.00
2019-02-02T01:49:16.061Z,0.00
2019-02-02T01:50:16.042Z,0.00
2019-02-02T01:51:16.030Z,0.00
2019-02-02T01:52:16.018Z,0.00
2019-02-02T01:53:16.007Z,0.00
2019-02-02T01:54:15.995Z,0.00
2019-02-02T01:55:15.980Z,0.00
2019-02-02T01:56:15.966Z,0.00
2019-02-02T01:57:15.955Z,0.00
2019-02-02T01:58:17.092Z,0.00
2019-02-02T01:59:15.928Z,0.00
2019-02-02T02:00:15.916Z,0.00
2019-02-02T02:01:15.900Z,0.00
2019-02-02T02:02:15.888Z,0.00
2019-02-02T02:03:15.876Z,0.00
2019-02-02T02:04:15.867Z,0.00
2019-02-02T02:05:15.848Z,0.00
2019-02-02T02:06:15.834Z,0.00
2019-02-02T02:07:15.830Z,0.00
2019-02-02T02:08:15.810Z,0.00
2019-02-02T02:09:15.800Z,0.00
2019-02-02T02:10:15.784Z,0.00
2019-02-02T02:11:15.779Z,0.00
2019-02-02T02:12:15.760Z,0.00
2019-02-02T02:13:15.746Z,0.00
2019-02-02T02:14:15.733Z,0.00
2019-02-02T02:15:15.724Z,0.00
2019-02-02T02:16:15.709Z,0.00
2019-02-02T02:17:15.696Z,0.00
2019-02-02T02:18:15.682Z,0.00
2019-02-02T02:19:15.668Z,0.00
2019-02-02T02:20:15.650Z,0.00
2019-02-02T02:21:15.644Z,0.00
2019-02-02T02:22:15.667Z,0.00
2019-02-02T02:23:15.617Z,0.00
2019-02-02T02:24:15.603Z,0.00
2019-02-02T02:25:15.587Z,0.00
2019-02-02T02:26:15.577Z,0.00
2019-02-02T02:27:15.563Z,0.00
2019-02-02T02:28:15.556Z,0.00
2019-02-02T02:29:15.540Z,0.00
2019-02-02T02:30:15.525Z,0.00
2019-02-02T02:31:15.511Z,0.00
2019-02-02T02:32:15.501Z,0.00
2019-02-02T02:33:15.484Z,0.00
2019-02-02T02:34:15.470Z,0.00
2019-02-02T02:35:15.461Z,0.00
2019-02-02T02:36:15.449Z,0.00
2019-02-02T02:37:15.435Z,0.00
2019-02-02T02:38:15.427Z,0.00
2019-02-02T02:39:15.410Z,0.00
2019-02-02T02:40:15.401Z,0.00
2019-02-02T02:41:15.380Z,0.00
2019-02-02T02:42:15.370Z,0.00
2019-02-02T02:43:15.359Z,0.00
2019-02-02T02:44:15.345Z,0.00
2019-02-02T02:45:15.333Z,0.00
2019-02-02T02:46:15.323Z,0.00
2019-02-02T02:47:15.301Z,0.00
2019-02-02T02:48:15.300Z,0.00
2019-02-02T02:49:15.279Z,0.00
2019-02-02T02:50:15.265Z,0.00
2019-02-02T02:51:15.256Z,0.00
2019-02-02T02:52:15.242Z,0.00
2019-02-02T02:53:15.222Z,0.00
2019-02-02T02:54:15.216Z,0.00
2019-02-02T02:55:15.410Z,0.00
2019-02-02T02:56:15.188Z,0.00
2019-02-02T02:57:15.178Z,0.00
2019-02-02T02:58:15.171Z,0.00
2019-02-02T02:59:15.149Z,0.00
2019-02-02T03:00:15.141Z,0.00
2019-02-02T03:01:15.119Z,0.00
2019-02-02T03:02:15.113Z,0.00
2019-02-02T03:03:15.099Z,0.00
2019-02-02T03:04:15.087Z,0.00
2019-02-02T03:05:15.073Z,0.00
2019-02-02T03:06:15.057Z,0.00
2019-02-02T03:07:15.046Z,0.00
2019-02-02T03:08:15.031Z,0.00
2019-02-02T03:09:15.021Z,0.00
2019-02-02T03:10:15.010Z,0.00
2019-02-02T03:11:14.994Z,0.00
2019-02-02T03:12:14.981Z,0.00
2019-02-02T03:13:14.969Z,0.00
2019-02-02T03:14:14.954Z,0.00
2019-02-02T03:15:14.957Z,0.00
2019-02-02T03:16:14.929Z,0.00
2019-02-02T03:17:14.928Z,0.00
2019-02-02T03:18:14.899Z,0.00
2019-02-02T03:19:14.911Z,0.00
2019-02-02T03:20:14.878Z,0.00
2019-02-02T03:21:14.868Z,0.00
2019-02-02T03:22:14.848Z,0.00
2019-02-02T03:23:14.841Z,0.00
2019-02-02T03:24:14.828Z,0.00
2019-02-02T03:25:14.821Z,0.00
2019-02-02T03:26:14.803Z,0.00
2019-02-02T03:27:14.787Z,0.00
2019-02-02T03:28:14.772Z,0.00
2019-02-02T03:29:14.760Z,0.00
2019-02-02T03:30:14.750Z,0.00
2019-02-02T03:31:14.742Z,0.00
2019-02-02T03:32:14.735Z,0.00
2019-02-02T03:33:14.714Z,0.00
2019-02-02T03:34:14.699Z,0.00
2019-02-02T03:35:14.687Z,0.00
2019-02-02T03:36:14.670Z,0.00
2019-02-02T03:37:14.657Z,0.00
2019-02-02T03:38:14.648Z,0.00
2019-02-02T03:39:14.637Z,0.00
2019-02-02T03:40:14.624Z,0.00
2019-02-02T03:41:14.609Z,0.00
2019-02-02T03:42:14.590Z,0.00
2019-02-02T03:43:14.582Z,0.00
2019-02-02T03:44:14.565Z,0.00
2019-02-02T03:45:14.556Z,0.00
2019-02-02T03:46:14.546Z,0.00
2019-02-02T03:47:14.532Z,0.00
2019-02-02T03:48:14.516Z,0.00
2019-02-02T03:49:14.502Z,0.00
2019-02-02T03:50:14.492Z,0.00
2019-02-02T03:51:14.477Z,0.00
2019-02-02T03:52:14.476Z,0.00
2019-02-02T03:53:14.459Z,0.00
2019-02-02T03:54:14.442Z,0.00
2019-02-02T03:55:14.427Z,0.00
2019-02-02T03:56:14.412Z,0.00
2019-02-02T03:57:14.403Z,0.00
2019-02-02T03:58:14.382Z,0.00
2019-02-02T03:59:14.377Z,0.00
2019-02-02T04:00:14.366Z,0.00
2019-02-02T04:01:14.356Z,0.00
2019-02-02T04:02:14.336Z,0.00
2019-02-02T04:03:14.331Z,0.00
2019-02-02T04:04:14.313Z,0.00
2019-02-02T04:05:14.305Z,0.00
2019-02-02T04:06:14.287Z,0.00
2019-02-02T04:07:14.275Z,0.00
2019-02-02T04:08:14.267Z,0.00
2019-02-02T04:09:14.321Z,0.00
2019-02-02T04:10:14.231Z,0.00
2019-02-02T04:11:14.225Z,0.00
2019-02-02T04:12:14.210Z,0.00
2019-02-02T04:13:14.204Z,0.00
2019-02-02T04:14:14.186Z,0.00
2019-02-02T04:15:14.172Z,0.00
2019-02-02T04:16:14.156Z,0.00
2019-02-02T04:17:14.143Z,0.00
2019-02-02T04:18:14.135Z,0.00
2019-02-02T04:19:14.126Z,0.00
2019-02-02T04:20:14.179Z,0.00
2019-02-02T04:21:14.097Z,0.00
2019-02-02T04:22:14.086Z,0.00
2019-02-02T04:23:14.068Z,0.00
2019-02-02T04:24:14.067Z,0.00
2019-02-02T04:25:14.042Z,0.00
2019-02-02T04:26:14.029Z,0.00
2019-02-02T04:27:14.023Z,0.00
2019-02-02T04:28:14.009Z,0.00
2019-02-02T04:29:17.720Z,0.00
2019-02-02T04:30:13.981Z,0.00
2019-02-02T04:31:13.963Z,0.00
2019-02-02T04:32:13.953Z,0.00
2019-02-02T04:33:13.939Z,0.00
2019-02-02T04:34:13.928Z,0.00
2019-02-02T04:35:13.921Z,0.00
2019-02-02T04:36:13.906Z,0.00
2019-02-02T04:37:13.889Z,0.00
2019-02-02T04:38:13.880Z,0.00
2019-02-02T04:39:13.863Z,0.00
2019-02-02T04:40:13.862Z,0.00
2019-02-02T04:41:13.840Z,0.00
2019-02-02T04:42:13.831Z,0.00
2019-02-02T04:43:13.821Z,0.00
2019-02-02T04:44:13.798Z,0.00
2019-02-02T04:45:13.791Z,0.00
2019-02-02T04:46:13.776Z,0.00
2019-02-02T04:47:13.765Z,0.00
2019-02-02T04:48:13.754Z,0.00
2019-02-02T04:49:13.743Z,0.00
2019-02-02T04:50:13.725Z,0.00
2019-02-02T04:51:13.713Z,0.00
2019-02-02T04:52:13.702Z,0.00
2019-02-02T04:53:13.688Z,0.00
2019-02-02T04:54:13.675Z,0.00
2019-02-02T04:55:13.665Z,0.00
2019-02-02T04:56:13.648Z,0.00
2019-02-02T04:57:13.638Z,0.00
2019-02-02T04:58:13.627Z,0.00
2019-02-02T04:59:13.617Z,0.00
2019-02-02T05:00:13.600Z,0.00
2019-02-02T05:01:13.590Z,0.00
2019-02-02T05:02:13.577Z,0.00
2019-02-02T05:03:13.562Z,0.00
2019-02-02T05:04:13.551Z,0.00
2019-02-02T05:05:13.536Z,0.00
2019-02-02T05:06:13.523Z,0.00
2019-02-02T05:07:13.512Z,0.00
2019-02-02T05:08:13.496Z,0.00
2019-02-02T05:09:13.491Z,0.00
2019-02-02T05:10:13.475Z,0.00
2019-02-02T05:11:13.462Z,0.00
2019-02-02T05:12:13.450Z,0.00
2019-02-02T05:13:13.437Z,0.00
2019-02-02T05:14:13.424Z,0.00
2019-02-02T05:15:13.405Z,0.00
2019-02-02T05:16:13.392Z,0.00
2019-02-02T05:17:13.388Z,0.00
2019-02-02T05:18:13.375Z,0.00
2019-02-02T05:19:13.360Z,0.00
2019-02-02T05:20:13.342Z,0.00
2019-02-02T05:21:13.334Z,0.00
2019-02-02T05:22:13.323Z,0.00
2019-02-02T05:23:13.307Z,0.00
2019-02-02T05:24:13.296Z,0.00
2019-02-02T05:25:13.284Z,0.00
2019-02-02T05:26:13.271Z,0.00
2019-02-02T05:27:13.257Z,0.00
2019-02-02T05:28:13.248Z,0.00
2019-02-02T05:29:13.232Z,0.00
2019-02-02T05:30:13.225Z,0.00
2019-02-02T05:31:13.211Z,0.00
2019-02-02T05:32:13.197Z,0.00
2019-02-02T05:33:13.188Z,0.00
2019-02-02T05:34:13.174Z,0.00
2019-02-02T05:35:13.161Z,0.00
2019-02-02T05:36:13.150Z,0.00
2019-02-02T05:37:13.134Z,0.00
2019-02-02T05:38:13.122Z,0.00
2019-02-02T05:39:13.117Z,0.00
2019-02-02T05:40:13.100Z,0.00
2019-02-02T05:41:13.082Z,0.00
2019-02-02T05:42:13.075Z,0.00
2019-02-02T05:43:13.058Z,0.00
2019-02-02T05:44:13.047Z,0.00
2019-02-02T05:45:13.059Z,0.00
2019-02-02T05:46:13.026Z,0.00
2019-02-02T05:47:13.015Z,0.00
2019-02-02T05:48:12.999Z,0.00
2019-02-02T05:49:12.991Z,0.00
2019-02-02T05:50:12.977Z,0.00
2019-02-02T05:51:12.962Z,0.00
2019-02-02T05:52:12.952Z,0.00
2019-02-02T05:53:12.944Z,0.00
2019-02-02T05:54:12.924Z,0.00
2019-02-02T05:55:12.925Z,0.00
2019-02-02T05:56:12.900Z,0.00
2019-02-02T05:57:12.888Z,0.00
2019-02-02T05:58:12.874Z,0.00
2019-02-02T05:59:12.866Z,0.00
2019-02-02T06:00:12.851Z,0.00
2019-02-02T06:01:12.842Z,0.00
2019-02-02T06:02:12.823Z,0.00
2019-02-02T06:03:12.813Z,0.00
2019-02-02T06:04:12.820Z,0.00
2019-02-02T06:05:12.789Z,0.00
2019-02-02T06:06:12.777Z,0.00
2019-02-02T06:07:12.768Z,0.00
2019-02-02T06:08:12.754Z,0.00
2019-02-02T06:09:12.871Z,0.00
2019-02-02T06:10:12.732Z,0.00
2019-02-02T06:11:12.717Z,0.00
2019-02-02T06:12:12.705Z,0.00
2019-02-02T06:13:12.693Z,0.00
2019-02-02T06:14:12.678Z,0.00
2019-02-02T06:15:12.664Z,0.00
2019-02-02T06:16:12.653Z,0.00
2019-02-02T06:17:12.638Z,0.00
2019-02-02T06:18:12.637Z,0.00
2019-02-02T06:19:12.621Z,0.00
2019-02-02T06:20:12.604Z,0.00
2019-02-02T06:21:12.592Z,0.00
2019-02-02T06:22:12.584Z,0.00
2019-02-02T06:23:12.567Z,0.00
2019-02-02T06:24:12.553Z,0.00
2019-02-02T06:25:12.548Z,0.00
2019-02-02T06:26:12.533Z,0.00
2019-02-02T06:27:12.522Z,0.00
2019-02-02T06:28:12.510Z,0.00
2019-02-02T06:29:12.498Z,0.00
2019-02-02T06:30:12.477Z,0.00
2019-02-02T06:31:12.472Z,0.00
2019-02-02T06:32:12.458Z,0.00
2019-02-02T06:33:12.445Z,0.00
2019-02-02T06:34:12.432Z,0.00
2019-02-02T06:35:12.424Z,0.00
2019-02-02T06:36:12.411Z,0.00
2019-02-02T06:37:12.392Z,0.00
2019-02-02T06:38:12.381Z,0.00
2019-02-02T06:39:12.374Z,0.00
2019-02-02T06:40:12.360Z,4.00
2019-02-02T06:41:12.346Z,4.00
2019-02-02T06:42:12.339Z,0.00
2019-02-02T06:43:12.325Z,4.00
2019-02-02T06:44:12.307Z,4.00
2019-02-02T06:45:12.294Z,4.00
2019-02-02T06:46:12.280Z,8.00
2019-02-02T06:47:12.278Z,8.00
2019-02-02T06:48:12.268Z,12.00
2019-02-02T06:49:12.251Z,12.00
2019-02-02T06:50:12.241Z,12.00
2019-02-02T06:51:12.220Z,16.00
2019-02-02T06:52:12.209Z,20.00
2019-02-02T06:53:12.202Z,20.00
2019-02-02T06:54:12.186Z,24.00
2019-02-02T06:55:12.172Z,28.00
2019-02-02T06:56:12.160Z,28.00
2019-02-02T06:57:12.150Z,32.00
2019-02-02T06:58:12.136Z,40.00
2019-02-02T06:59:12.128Z,40.00
2019-02-02T07:00:16.206Z,44.00
2019-02-02T07:01:12.102Z,44.00
2019-02-02T07:02:12.084Z,52.00
2019-02-02T07:03:12.077Z,56.00
2019-02-02T07:04:12.065Z,60.00
2019-02-02T07:05:12.049Z,68.00
2019-02-02T07:06:12.037Z,72.00
2019-02-02T07:07:12.025Z,80.00
2019-02-02T07:08:12.015Z,88.00
2019-02-02T07:09:12.006Z,100.00
2019-02-02T07:10:11.989Z,108.00
2019-02-02T07:11:11.978Z,116.00
2019-02-02T07:12:11.957Z,128.00
2019-02-02T07:13:11.949Z,140.00
2019-02-02T07:14:11.936Z,152.00
2019-02-02T07:15:11.923Z,164.00
2019-02-02T07:16:11.916Z,180.00
2019-02-02T07:17:11.904Z,200.00
2019-02-02T07:18:11.888Z,216.00
2019-02-02T07:19:11.877Z,224.00
2019-02-02T07:20:11.863Z,228.00
2019-02-02T07:21:11.851Z,228.00
2019-02-02T07:22:11.837Z,232.00
2019-02-02T07:23:11.832Z,236.00
2019-02-02T07:24:11.817Z,244.00
2019-02-02T07:25:11.802Z,248.00
2019-02-02T07:26:11.787Z,264.00
2019-02-02T07:27:11.776Z,280.00
2019-02-02T07:28:11.772Z,296.00
2019-02-02T07:29:11.754Z,312.00
2019-02-02T07:30:11.735Z,328.00
2019-02-02T07:31:11.729Z,348.00
2019-02-02T07:32:11.714Z,372.00
2019-02-02T07:33:11.701Z,396.00
2019-02-02T07:34:11.684Z,416.00
2019-02-02T07:35:11.674Z,440.00
2019-02-02T07:36:11.663Z,464.00
2019-02-02T07:37:11.651Z,496.00
2019-02-02T07:38:11.635Z,540.00
2019-02-02T07:39:11.626Z,596.00
2019-02-02T07:40:11.613Z,660.00
2019-02-02T07:41:11.609Z,744.00
2019-02-02T07:42:11.591Z,840.00
2019-02-02T07:43:11.577Z,960.00
2019-02-02T07:44:11.566Z,1096.00
2019-02-02T07:45:11.555Z,1228.00
2019-02-02T07:46:15.083Z,1332.00
2019-02-02T07:47:11.529Z,1400.00
2019-02-02T07:48:11.515Z,1440.00
2019-02-02T07:49:11.499Z,1452.00
2019-02-02T07:50:11.493Z,1460.00
2019-02-02T07:51:11.475Z,1456.00
2019-02-02T07:52:11.569Z,1448.00
2019-02-02T07:53:11.455Z,1444.00
2019-02-02T07:54:11.435Z,1440.00
2019-02-02T07:55:11.426Z,1436.00
2019-02-02T07:56:11.414Z,1412.00
2019-02-02T07:57:11.409Z,1384.00
2019-02-02T07:58:11.390Z,1360.00
2019-02-02T07:59:11.377Z,1344.00
2019-02-02T08:00:11.365Z,1332.00
2019-02-02T08:01:11.355Z,1332.00
2019-02-02T08:02:11.336Z,1336.00
2019-02-02T08:03:11.328Z,1340.00
2019-02-02T08:04:11.319Z,1344.00
2019-02-02T08:05:11.305Z,1356.00
2019-02-02T08:06:11.292Z,1376.00
2019-02-02T08:07:11.283Z,1404.00
2019-02-02T08:08:11.265Z,1416.00
2019-02-02T08:09:11.254Z,1416.00
2019-02-02T08:10:11.241Z,1404.00
2019-02-02T08:11:11.234Z,1384.00
2019-02-02T08:12:11.215Z,1384.00
2019-02-02T08:13:11.203Z,1400.00
2019-02-02T08:14:11.590Z,1440.00
2019-02-02T08:15:11.179Z,1500.00
2019-02-02T08:16:11.160Z,1572.00
2019-02-02T08:17:11.154Z,1660.00
2019-02-02T08:18:11.141Z,1744.00
2019-02-02T08:19:11.129Z,1852.00
2019-02-02T08:20:11.120Z,1960.00
2019-02-02T08:21:11.106Z,2072.00
2019-02-02T08:22:11.085Z,2236.00
2019-02-02T08:23:11.094Z,2472.00
2019-02-02T08:24:11.063Z,2668.00
2019-02-02T08:25:11.059Z,2896.00
2019-02-02T08:26:11.040Z,3100.00
2019-02-02T08:27:11.031Z,3264.00
2019-02-02T08:28:11.017Z,3340.00
2019-02-02T08:29:11.005Z,3368.00
2019-02-02T08:30:10.991Z,3452.00
2019-02-02T08:31:10.981Z,3504.00
2019-02-02T08:32:10.967Z,3536.00
2019-02-02T08:33:10.957Z,3452.00
2019-02-02T08:34:10.941Z,3340.00
2019-02-02T08:35:10.931Z,3276.00
2019-02-02T08:36:10.915Z,3228.00
2019-02-02T08:37:10.902Z,3172.00
2019-02-02T08:38:10.891Z,3108.00
2019-02-02T08:39:10.882Z,3016.00
2019-02-02T08:40:10.871Z,2884.00
2019-02-02T08:41:10.852Z,2780.00
2019-02-02T08:42:10.841Z,2692.00
2019-02-02T08:43:10.832Z,2632.00
2019-02-02T08:44:10.819Z,2624.00
2019-02-02T08:45:10.802Z,2668.00
2019-02-02T08:46:10.795Z,2712.00
2019-02-02T08:47:10.781Z,2704.00
2019-02-02T08:48:10.772Z,2652.00
2019-02-02T08:49:10.759Z,2552.00
2019-02-02T08:50:10.739Z,2416.00
2019-02-02T08:51:10.729Z,2284.00
2019-02-02T08:52:10.717Z,2184.00
2019-02-02T08:53:10.713Z,2108.00
2019-02-02T08:54:10.697Z,2052.00
2019-02-02T08:55:10.680Z,2024.00
2019-02-02T08:56:10.667Z,2016.00
2019-02-02T08:57:10.669Z,2032.00
2019-02-02T08:58:10.682Z,2060.00
2019-02-02T08:59:10.700Z,2096.00
2019-02-02T09:00:10.620Z,2140.00
2019-02-02T09:01:10.609Z,2164.00
2019-02-02T09:02:10.591Z,2172.00
2019-02-02T09:03:10.584Z,2184.00
2019-02-02T09:04:10.596Z,2208.00
2019-02-02T09:05:10.711Z,2232.00
2019-02-02T09:06:10.540Z,2264.00
2019-02-02T09:07:10.530Z,2312.00
2019-02-02T09:08:10.518Z,2380.00
2019-02-02T09:09:10.504Z,2476.00
2019-02-02T09:10:10.491Z,2616.00
2019-02-02T09:11:10.481Z,2756.00
2019-02-02T09:12:10.467Z,2900.00
2019-02-02T09:13:10.457Z,2996.00
2019-02-02T09:14:10.446Z,3044.00
2019-02-02T09:15:10.435Z,3084.00
2019-02-02T09:16:10.425Z,3148.00
2019-02-02T09:17:10.409Z,3252.00
2019-02-02T09:18:10.389Z,3340.00
2019-02-02T09:19:10.385Z,3404.00
2019-02-02T09:20:10.371Z,3416.00
2019-02-02T09:21:10.360Z,3412.00
2019-02-02T09:22:10.348Z,3412.00
2019-02-02T09:23:10.336Z,3424.00
2019-02-02T09:24:10.322Z,3444.00
2019-02-02T09:25:10.314Z,3476.00
2019-02-02T09:26:10.296Z,3552.00
2019-02-02T09:27:10.284Z,3644.00
2019-02-02T09:28:10.269Z,3756.00
2019-02-02T09:29:10.549Z,3836.00
2019-02-02T09:30:10.248Z,3864.00
2019-02-02T09:31:15.781Z,3888.00
2019-02-02T09:32:10.228Z,3952.00
2019-02-02T09:33:10.211Z,4048.00
2019-02-02T09:34:10.199Z,4164.00
2019-02-02T09:35:10.187Z,4300.00
2019-02-02T09:36:10.180Z,4436.00
2019-02-02T09:37:10.162Z,4612.00
2019-02-02T09:38:12.276Z,4740.00
2019-02-02T09:39:10.131Z,4872.00
2019-02-02T09:40:10.127Z,4936.00
2019-02-02T09:41:10.113Z,4868.00
2019-02-02T09:42:10.103Z,4612.00
2019-02-02T09:43:10.087Z,4368.00
2019-02-02T09:44:10.094Z,4104.00
2019-02-02T09:45:10.065Z,3996.00
2019-02-02T09:46:10.050Z,3980.00
2019-02-02T09:47:10.033Z,3984.00
2019-02-02T09:48:10.030Z,3964.00
2019-02-02T09:49:10.016Z,3920.00
2019-02-02T09:50:10.001Z,3868.00
2019-02-02T09:51:09.991Z,3788.00
2019-02-02T09:52:09.975Z,3676.00
2019-02-02T09:53:09.969Z,3584.00
2019-02-02T09:54:09.945Z,3548.00
2019-02-02T09:55:09.942Z,3568.00
2019-02-02T09:56:09.930Z,3628.00
2019-02-02T09:57:09.921Z,3712.00
2019-02-02T09:58:09.912Z,3832.00
2019-02-02T09:59:09.943Z,4000.00
2019-02-02T10:00:09.877Z,4196.00
2019-02-02T10:01:09.870Z,4364.00
2019-02-02T10:02:09.857Z,4556.00
2019-02-02T10:03:09.844Z,4828.00
2019-02-02T10:04:09.836Z,5124.00
2019-02-02T10:05:09.817Z,5224.00
2019-02-02T10:06:09.810Z,5096.00
2019-02-02T10:07:09.893Z,4860.00
2019-02-02T10:08:09.786Z,4612.00
2019-02-02T10:09:09.774Z,4388.00
2019-02-02T10:10:09.761Z,4224.00
2019-02-02T10:11:09.778Z,4064.00
2019-02-02T10:12:09.736Z,3956.00
2019-02-02T10:13:09.722Z,3916.00
2019-02-02T10:14:09.712Z,3948.00
2019-02-02T10:15:09.703Z,4004.00
2019-02-02T10:16:09.688Z,4028.00
2019-02-02T10:17:09.677Z,4048.00
2019-02-02T10:18:09.691Z,4048.00
2019-02-02T10:19:09.648Z,4040.00
2019-02-02T10:20:09.646Z,4032.00
2019-02-02T10:21:09.645Z,4052.00
2019-02-02T10:22:09.631Z,4096.00
2019-02-02T10:23:09.603Z,4188.00
2019-02-02T10:24:09.595Z,4340.00
2019-02-02T10:25:09.578Z,4520.00
2019-02-02T10:26:09.569Z,4700.00
2019-02-02T10:27:09.564Z,4808.00
2019-02-02T10:28:09.543Z,4772.00
2019-02-02T10:29:09.533Z,4656.00
2019-02-02T10:30:09.523Z,4484.00
2019-02-02T10:31:09.507Z,4392.00
2019-02-02T10:32:09.495Z,4344.00
2019-02-02T10:33:09.484Z,4372.00
2019-02-02T10:34:12.341Z,4424.00
2019-02-02T10:35:09.463Z,4540.00
2019-02-02T10:36:09.447Z,4656.00
2019-02-02T10:37:09.435Z,4788.00
2019-02-02T10:38:09.416Z,4924.00
2019-02-02T10:39:09.409Z,5064.00
2019-02-02T10:40:09.395Z,5172.00
2019-02-02T10:41:09.384Z,5320.00
2019-02-02T10:42:09.370Z,5416.00
2019-02-02T10:43:09.362Z,5592.00
2019-02-02T10:44:09.350Z,5864.00
2019-02-02T10:45:09.330Z,6036.00
2019-02-02T10:46:10.863Z,6268.00
2019-02-02T10:47:09.306Z,6344.00
2019-02-02T10:48:09.315Z,6428.00
2019-02-02T10:49:09.284Z,6668.00
2019-02-02T10:50:09.275Z,6752.00
2019-02-02T10:51:09.259Z,6840.00
2019-02-02T10:52:09.249Z,6720.00
2019-02-02T10:53:09.243Z,6636.00
2019-02-02T10:54:09.226Z,6416.00
2019-02-02T10:55:09.213Z,6280.00
2019-02-02T10:56:09.198Z,6096.00
2019-02-02T10:57:09.222Z,5856.00
2019-02-02T10:58:09.172Z,5728.00
2019-02-02T10:59:09.172Z,5540.00
2019-02-02T11:00:09.156Z,5332.00
2019-02-02T11:01:09.142Z,5176.00
2019-02-02T11:02:09.127Z,4988.00
2019-02-02T11:03:09.117Z,4844.00
2019-02-02T11:04:09.111Z,4604.00
2019-02-02T11:05:09.093Z,4404.00
2019-02-02T11:06:09.186Z,4180.00
2019-02-02T11:07:09.088Z,3984.00
2019-02-02T11:08:09.058Z,3860.00
2019-02-02T11:09:09.137Z,3752.00
2019-02-02T11:10:09.035Z,3496.00
2019-02-02T11:11:09.086Z,3516.00
2019-02-02T11:12:09.009Z,3540.00
2019-02-02T11:13:09.088Z,3508.00
2019-02-02T11:14:09.152Z,3600.00
2019-02-02T11:15:08.995Z,3620.00
2019-02-02T11:16:08.989Z,3652.00
2019-02-02T11:17:08.953Z,3632.00
2019-02-02T11:18:08.984Z,3704.00
2019-02-02T11:19:09.022Z,3748.00
2019-02-02T11:20:08.959Z,3708.00
2019-02-02T11:21:09.029Z,3664.00
2019-02-02T11:22:08.899Z,3720.00
2019-02-02T11:23:09.022Z,3848.00
2019-02-02T11:24:09.033Z,3852.00
2019-02-02T11:25:08.899Z,3852.00
2019-02-02T11:26:08.961Z,3772.00
2019-02-02T11:27:08.962Z,3724.00
2019-02-02T11:28:08.828Z,3768.00
2019-02-02T11:29:08.842Z,3684.00
2019-02-02T11:30:08.890Z,3596.00
2019-02-02T11:31:08.779Z,3648.00
2019-02-02T11:32:08.769Z,3808.00
2019-02-02T11:33:08.758Z,4136.00
2019-02-02T11:34:08.742Z,4460.00
2019-02-02T11:35:08.731Z,4608.00
2019-02-02T11:36:08.716Z,4680.00
2019-02-02T11:37:08.706Z,4692.00
2019-02-02T11:38:08.695Z,4724.00
2019-02-02T11:39:08.683Z,4592.00
2019-02-02T11:40:08.669Z,4464.00
2019-02-02T11:41:08.674Z,4204.00
2019-02-02T11:42:08.641Z,3928.00
2019-02-02T11:43:08.627Z,3720.00
2019-02-02T11:44:08.627Z,3620.00
2019-02-02T11:45:08.605Z,3704.00
2019-02-02T11:46:08.597Z,3984.00
2019-02-02T11:47:08.586Z,4240.00
2019-02-02T11:48:08.570Z,4284.00
2019-02-02T11:49:08.557Z,4316.00
2019-02-02T11:50:08.549Z,4296.00
2019-02-02T11:51:08.540Z,4212.00
2019-02-02T11:52:08.522Z,4220.00
2019-02-02T11:53:08.510Z,4240.00
2019-02-02T11:54:08.497Z,4272.00
2019-02-02T11:55:08.483Z,4268.00
2019-02-02T11:56:08.477Z,4316.00
2019-02-02T11:57:08.465Z,4304.00
2019-02-02T11:58:08.452Z,4248.00
2019-02-02T11:59:08.440Z,4252.00
2019-02-02T12:00:08.427Z,4132.00
2019-02-02T12:01:08.416Z,3940.00
2019-02-02T12:02:14.428Z,3752.00
2019-02-02T12:03:08.385Z,3616.00
2019-02-02T12:04:08.373Z,3504.00
2019-02-02T12:05:08.399Z,3488.00
2019-02-02T12:06:08.353Z,3464.00
2019-02-02T12:07:08.340Z,3496.00
2019-02-02T12:08:08.332Z,3564.00
2019-02-02T12:09:08.318Z,3672.00
2019-02-02T12:10:08.301Z,3824.00
2019-02-02T12:11:08.292Z,4040.00
2019-02-02T12:12:08.282Z,4236.00
2019-02-02T12:13:08.270Z,4188.00
2019-02-02T12:14:08.254Z,4004.00
2019-02-02T12:15:08.241Z,3968.00
2019-02-02T12:16:08.230Z,3996.00
2019-02-02T12:17:08.215Z,4080.00
2019-02-02T12:18:08.205Z,4088.00
2019-02-02T12:19:08.193Z,4064.00
2019-02-02T12:20:08.180Z,4004.00
2019-02-02T12:21:08.168Z,3836.00
2019-02-02T12:22:08.157Z,3716.00
2019-02-02T12:23:08.139Z,3496.00
2019-02-02T12:24:15.822Z,3320.00
2019-02-02T12:25:08.126Z,3108.00
2019-02-02T12:26:08.110Z,2932.00
2019-02-02T12:27:08.097Z,2816.00
2019-02-02T12:28:09.277Z,2692.00
2019-02-02T12:29:08.070Z,2540.00
2019-02-02T12:30:08.055Z,2288.00
2019-02-02T12:31:08.045Z,2144.00
2019-02-02T12:32:08.036Z,1972.00
2019-02-02T12:33:08.025Z,1836.00
2019-02-02T12:34:08.008Z,1708.00
2019-02-02T12:35:08.000Z,1656.00
2019-02-02T12:36:07.985Z,1664.00
2019-02-02T12:37:07.968Z,1676.00
2019-02-02T12:38:07.961Z,1728.00
2019-02-02T12:39:07.953Z,1812.00
2019-02-02T12:40:07.939Z,1904.00
2019-02-02T12:41:07.929Z,2000.00
2019-02-02T12:42:07.913Z,2052.00
2019-02-02T12:43:07.903Z,2100.00
2019-02-02T12:44:07.890Z,2148.00
2019-02-02T12:45:07.873Z,2152.00
2019-02-02T12:46:07.863Z,2152.00
2019-02-02T12:47:07.849Z,2196.00
2019-02-02T12:48:07.841Z,2236.00
2019-02-02T12:49:07.844Z,2248.00
2019-02-02T12:50:07.812Z,2440.00
2019-02-02T12:51:07.801Z,2608.00
2019-02-02T12:52:07.785Z,2756.00
2019-02-02T12:53:07.777Z,2932.00
2019-02-02T12:54:07.765Z,3068.00
2019-02-02T12:55:07.752Z,3212.00
2019-02-02T12:56:07.740Z,3492.00
2019-02-02T12:57:07.723Z,3824.00
2019-02-02T12:58:07.712Z,4184.00
2019-02-02T12:59:07.705Z,4504.00
2019-02-02T13:00:07.690Z,4680.00
2019-02-02T13:01:07.681Z,4780.00